sensor_id;sensor_type;location;lat;lon;timestamp;P1;durP1;ratioP1;P2;durP2;ratioP2
22646;SDS011;11490;42.726;23.268;2023-11-21T00:02:09;50.00;;;28.77;;
22646;SDS011;11490;42.726;23.268;2023-11-21T00:04:35;36.38;;;24.05;;
22646;SDS011;11490;42.726;23.268;2023-11-21T00:07:00;42.58;;;26.05;;
22646;SDS011;11490;42.726;23.268;2023-11-21T00:09:25;48.92;;;24.48;;
22646;SDS011;11490;42.726;23.268;2023-11-21T00:11:51;48.38;;;24.92;;
22646;SDS011;11490;42.726;23.268;2023-11-21T00:14:16;46.33;;;23.52;;
22646;SDS011;11490;42.726;23.268;2023-11-21T00:16:42;42.72;;;24.35;;
22646;SDS011;11490;42.726;23.268;2023-11-21T00:19:07;51.78;;;26.70;;
22646;SDS011;11490;42.726;23.268;2023-11-21T00:21:32;47.83;;;28.33;;
22646;SDS011;11490;42.726;23.268;2023-11-21T00:23:58;50.80;;;26.67;;
22646;SDS011;11490;42.726;23.268;2023-11-21T00:26:23;66.20;;;33.92;;
22646;SDS011;11490;42.726;23.268;2023-11-21T00:28:49;61.38;;;30.38;;
22646;SDS011;11490;42.726;23.268;2023-11-21T00:31:15;54.88;;;29.50;;
22646;SDS011;11490;42.726;23.268;2023-11-21T00:33:41;48.72;;;29.17;;
22646;SDS011;11490;42.726;23.268;2023-11-21T00:36:06;51.55;;;26.13;;
22646;SDS011;11490;42.726;23.268;2023-11-21T00:38:34;42.90;;;26.52;;
22646;SDS011;11490;42.726;23.268;2023-11-21T00:41:00;52.70;;;28.08;;
22646;SDS011;11490;42.726;23.268;2023-11-21T00:43:26;49.28;;;25.40;;
22646;SDS011;11490;42.726;23.268;2023-11-21T00:45:51;53.13;;;29.65;;
22646;SDS011;11490;42.726;23.268;2023-11-21T00:48:16;49.67;;;27.52;;
22646;SDS011;11490;42.726;23.268;2023-11-21T00:50:43;47.28;;;24.50;;
22646;SDS011;11490;42.726;23.268;2023-11-21T00:53:09;42.70;;;24.33;;
22646;SDS011;11490;42.726;23.268;2023-11-21T00:55:34;37.70;;;22.05;;
22646;SDS011;11490;42.726;23.268;2023-11-21T00:57:59;39.75;;;23.00;;
22646;SDS011;11490;42.726;23.268;2023-11-21T01:00:27;40.85;;;22.13;;
22646;SDS011;11490;42.726;23.268;2023-11-21T01:02:53;40.78;;;22.13;;
22646;SDS011;11490;42.726;23.268;2023-11-21T01:05:18;38.42;;;21.40;;
22646;SDS011;11490;42.726;23.268;2023-11-21T01:07:44;40.72;;;21.08;;
22646;SDS011;11490;42.726;23.268;2023-11-21T01:10:10;32.47;;;20.38;;
22646;SDS011;11490;42.726;23.268;2023-11-21T01:12:36;29.65;;;20.30;;
22646;SDS011;11490;42.726;23.268;2023-11-21T01:15:03;34.38;;;20.17;;
22646;SDS011;11490;42.726;23.268;2023-11-21T01:17:37;30.73;;;18.38;;
22646;SDS011;11490;42.726;23.268;2023-11-21T01:20:03;27.15;;;17.13;;
22646;SDS011;11490;42.726;23.268;2023-11-21T01:22:35;31.08;;;18.63;;
22646;SDS011;11490;42.726;23.268;2023-11-21T01:25:01;42.22;;;20.83;;
22646;SDS011;11490;42.726;23.268;2023-11-21T01:27:29;30.85;;;18.17;;
22646;SDS011;11490;42.726;23.268;2023-11-21T01:29:55;45.67;;;18.80;;
22646;SDS011;11490;42.726;23.268;2023-11-21T01:32:20;33.25;;;17.10;;
22646;SDS011;11490;42.726;23.268;2023-11-21T01:34:45;23.20;;;17.70;;
22646;SDS011;11490;42.726;23.268;2023-11-21T01:37:11;24.40;;;17.27;;
22646;SDS011;11490;42.726;23.268;2023-11-21T01:39:37;25.00;;;16.60;;
22646;SDS011;11490;42.726;23.268;2023-11-21T01:42:04;26.52;;;17.05;;
22646;SDS011;11490;42.726;23.268;2023-11-21T01:44:30;36.75;;;18.38;;
22646;SDS011;11490;42.726;23.268;2023-11-21T01:46:55;29.48;;;17.55;;
22646;SDS011;11490;42.726;23.268;2023-11-21T01:49:22;26.90;;;17.15;;
22646;SDS011;11490;42.726;23.268;2023-11-21T01:51:48;26.00;;;15.60;;
22646;SDS011;11490;42.726;23.268;2023-11-21T01:54:16;31.08;;;19.55;;
22646;SDS011;11490;42.726;23.268;2023-11-21T01:56:47;31.33;;;17.63;;
22646;SDS011;11490;42.726;23.268;2023-11-21T01:59:14;32.40;;;16.27;;
22646;SDS011;11490;42.726;23.268;2023-11-21T02:01:45;20.75;;;15.27;;
22646;SDS011;11490;42.726;23.268;2023-11-21T02:04:12;17.45;;;12.57;;
22646;SDS011;11490;42.726;23.268;2023-11-21T02:06:37;20.05;;;12.73;;
22646;SDS011;11490;42.726;23.268;2023-11-21T02:09:04;11.80;;;8.02;;
22646;SDS011;11490;42.726;23.268;2023-11-21T02:11:30;16.05;;;11.55;;
22646;SDS011;11490;42.726;23.268;2023-11-21T02:13:55;21.13;;;11.77;;
22646;SDS011;11490;42.726;23.268;2023-11-21T02:16:23;17.75;;;9.57;;
22646;SDS011;11490;42.726;23.268;2023-11-21T02:18:49;14.30;;;8.85;;
22646;SDS011;11490;42.726;23.268;2023-11-21T02:21:17;19.02;;;10.35;;
22646;SDS011;11490;42.726;23.268;2023-11-21T02:23:42;20.63;;;11.55;;
22646;SDS011;11490;42.726;23.268;2023-11-21T02:26:09;16.48;;;8.85;;
22646;SDS011;11490;42.726;23.268;2023-11-21T02:28:36;17.35;;;9.88;;
22646;SDS011;11490;42.726;23.268;2023-11-21T02:31:01;16.73;;;10.10;;
22646;SDS011;11490;42.726;23.268;2023-11-21T02:33:29;17.35;;;11.38;;
22646;SDS011;11490;42.726;23.268;2023-11-21T02:35:55;13.27;;;8.55;;
22646;SDS011;11490;42.726;23.268;2023-11-21T02:38:21;12.73;;;9.27;;
22646;SDS011;11490;42.726;23.268;2023-11-21T02:40:46;15.13;;;9.60;;
22646;SDS011;11490;42.726;23.268;2023-11-21T02:43:14;10.45;;;7.82;;
22646;SDS011;11490;42.726;23.268;2023-11-21T02:45:39;12.27;;;10.13;;
22646;SDS011;11490;42.726;23.268;2023-11-21T02:48:06;16.63;;;10.02;;
22646;SDS011;11490;42.726;23.268;2023-11-21T02:50:32;15.70;;;9.82;;
22646;SDS011;11490;42.726;23.268;2023-11-21T02:52:57;12.00;;;9.82;;
22646;SDS011;11490;42.726;23.268;2023-11-21T02:55:25;13.48;;;9.02;;
22646;SDS011;11490;42.726;23.268;2023-11-21T02:57:51;21.95;;;10.20;;
22646;SDS011;11490;42.726;23.268;2023-11-21T03:00:16;13.55;;;10.43;;
22646;SDS011;11490;42.726;23.268;2023-11-21T03:02:42;16.13;;;10.25;;
22646;SDS011;11490;42.726;23.268;2023-11-21T03:05:08;17.45;;;10.18;;
22646;SDS011;11490;42.726;23.268;2023-11-21T03:07:35;12.20;;;10.15;;
22646;SDS011;11490;42.726;23.268;2023-11-21T03:10:02;11.13;;;8.43;;
22646;SDS011;11490;42.726;23.268;2023-11-21T03:12:29;19.88;;;10.85;;
22646;SDS011;11490;42.726;23.268;2023-11-21T03:14:54;10.70;;;8.35;;
22646;SDS011;11490;42.726;23.268;2023-11-21T03:17:20;14.80;;;10.23;;
22646;SDS011;11490;42.726;23.268;2023-11-21T03:19:46;11.38;;;8.50;;
22646;SDS011;11490;42.726;23.268;2023-11-21T03:22:11;12.00;;;9.73;;
22646;SDS011;11490;42.726;23.268;2023-11-21T03:24:37;13.00;;;8.73;;
22646;SDS011;11490;42.726;23.268;2023-11-21T03:27:03;13.55;;;9.90;;
22646;SDS011;11490;42.726;23.268;2023-11-21T03:29:29;15.02;;;9.13;;
22646;SDS011;11490;42.726;23.268;2023-11-21T03:31:54;16.48;;;9.50;;
22646;SDS011;11490;42.726;23.268;2023-11-21T03:34:24;12.30;;;8.52;;
22646;SDS011;11490;42.726;23.268;2023-11-21T03:36:53;17.08;;;10.55;;
22646;SDS011;11490;42.726;23.268;2023-11-21T03:39:22;15.68;;;9.48;;
22646;SDS011;11490;42.726;23.268;2023-11-21T03:41:47;15.43;;;10.63;;
22646;SDS011;11490;42.726;23.268;2023-11-21T03:44:13;20.70;;;12.40;;
22646;SDS011;11490;42.726;23.268;2023-11-21T03:46:39;24.13;;;12.82;;
22646;SDS011;11490;42.726;23.268;2023-11-21T03:49:04;26.77;;;16.42;;
22646;SDS011;11490;42.726;23.268;2023-11-21T03:51:30;25.52;;;16.52;;
22646;SDS011;11490;42.726;23.268;2023-11-21T03:53:56;21.42;;;16.20;;
22646;SDS011;11490;42.726;23.268;2023-11-21T03:56:21;22.42;;;16.80;;
22646;SDS011;11490;42.726;23.268;2023-11-21T03:58:47;16.98;;;12.25;;
22646;SDS011;11490;42.726;23.268;2023-11-21T04:01:22;19.45;;;13.35;;
22646;SDS011;11490;42.726;23.268;2023-11-21T04:03:49;20.17;;;12.27;;
22646;SDS011;11490;42.726;23.268;2023-11-21T04:06:15;17.67;;;10.60;;
22646;SDS011;11490;42.726;23.268;2023-11-21T04:08:42;18.15;;;11.18;;
22646;SDS011;11490;42.726;23.268;2023-11-21T04:11:09;9.95;;;8.10;;
22646;SDS011;11490;42.726;23.268;2023-11-21T04:13:36;10.68;;;7.32;;
22646;SDS011;11490;42.726;23.268;2023-11-21T04:16:02;11.80;;;8.10;;
22646;SDS011;11490;42.726;23.268;2023-11-21T04:18:28;11.70;;;8.65;;
22646;SDS011;11490;42.726;23.268;2023-11-21T04:20:53;9.90;;;7.15;;
22646;SDS011;11490;42.726;23.268;2023-11-21T04:23:19;10.93;;;7.78;;
22646;SDS011;11490;42.726;23.268;2023-11-21T04:25:46;10.23;;;8.27;;
22646;SDS011;11490;42.726;23.268;2023-11-21T04:28:12;9.07;;;7.20;;
22646;SDS011;11490;42.726;23.268;2023-11-21T04:30:38;11.02;;;7.85;;
22646;SDS011;11490;42.726;23.268;2023-11-21T04:33:04;25.38;;;8.50;;
22646;SDS011;11490;42.726;23.268;2023-11-21T04:35:30;8.70;;;7.82;;
22646;SDS011;11490;42.726;23.268;2023-11-21T04:37:55;10.25;;;7.13;;
22646;SDS011;11490;42.726;23.268;2023-11-21T04:40:22;9.13;;;7.45;;
22646;SDS011;11490;42.726;23.268;2023-11-21T04:42:47;8.13;;;7.18;;
22646;SDS011;11490;42.726;23.268;2023-11-21T04:45:13;8.75;;;6.57;;
22646;SDS011;11490;42.726;23.268;2023-11-21T04:47:38;16.27;;;8.43;;
22646;SDS011;11490;42.726;23.268;2023-11-21T04:50:04;17.33;;;9.77;;
22646;SDS011;11490;42.726;23.268;2023-11-21T04:52:31;14.75;;;8.77;;
22646;SDS011;11490;42.726;23.268;2023-11-21T04:54:57;17.63;;;10.18;;
22646;SDS011;11490;42.726;23.268;2023-11-21T04:57:23;14.43;;;9.50;;
22646;SDS011;11490;42.726;23.268;2023-11-21T04:59:49;17.88;;;10.38;;
22646;SDS011;11490;42.726;23.268;2023-11-21T05:02:15;15.93;;;9.70;;
22646;SDS011;11490;42.726;23.268;2023-11-21T05:04:41;13.20;;;9.15;;
22646;SDS011;11490;42.726;23.268;2023-11-21T05:07:07;15.13;;;9.95;;
22646;SDS011;11490;42.726;23.268;2023-11-21T05:09:33;17.73;;;10.35;;
22646;SDS011;11490;42.726;23.268;2023-11-21T05:11:59;14.82;;;10.23;;
22646;SDS011;11490;42.726;23.268;2023-11-21T05:14:25;13.82;;;11.40;;
22646;SDS011;11490;42.726;23.268;2023-11-21T05:16:50;14.15;;;10.82;;
22646;SDS011;11490;42.726;23.268;2023-11-21T05:19:16;16.48;;;12.25;;
22646;SDS011;11490;42.726;23.268;2023-11-21T05:21:42;18.98;;;12.90;;
22646;SDS011;11490;42.726;23.268;2023-11-21T05:24:07;21.10;;;11.07;;
22646;SDS011;11490;42.726;23.268;2023-11-21T05:26:33;17.67;;;12.50;;
22646;SDS011;11490;42.726;23.268;2023-11-21T05:28:58;18.38;;;13.52;;
22646;SDS011;11490;42.726;23.268;2023-11-21T05:31:24;21.25;;;12.80;;
22646;SDS011;11490;42.726;23.268;2023-11-21T05:33:50;17.67;;;13.98;;
22646;SDS011;11490;42.726;23.268;2023-11-21T05:36:16;23.05;;;13.73;;
22646;SDS011;11490;42.726;23.268;2023-11-21T05:38:41;25.60;;;14.35;;
22646;SDS011;11490;42.726;23.268;2023-11-21T05:41:07;35.03;;;18.60;;
22646;SDS011;11490;42.726;23.268;2023-11-21T05:43:33;33.03;;;18.17;;
22646;SDS011;11490;42.726;23.268;2023-11-21T05:46:00;26.95;;;17.92;;
22646;SDS011;11490;42.726;23.268;2023-11-21T05:48:26;37.95;;;17.20;;
22646;SDS011;11490;42.726;23.268;2023-11-21T05:50:51;82.50;;;36.88;;
22646;SDS011;11490;42.726;23.268;2023-11-21T05:53:20;88.28;;;43.10;;
22646;SDS011;11490;42.726;23.268;2023-11-21T05:56:20;62.22;;;35.05;;
22646;SDS011;11490;42.726;23.268;2023-11-21T05:58:46;45.55;;;25.25;;
22646;SDS011;11490;42.726;23.268;2023-11-21T06:01:11;19.63;;;15.23;;
22646;SDS011;11490;42.726;23.268;2023-11-21T06:03:38;19.13;;;12.23;;
22646;SDS011;11490;42.726;23.268;2023-11-21T06:06:03;26.38;;;15.57;;
22646;SDS011;11490;42.726;23.268;2023-11-21T06:08:29;30.33;;;18.17;;
22646;SDS011;11490;42.726;23.268;2023-11-21T06:10:55;23.95;;;16.05;;
22646;SDS011;11490;42.726;23.268;2023-11-21T06:13:20;18.27;;;13.57;;
22646;SDS011;11490;42.726;23.268;2023-11-21T06:15:49;16.20;;;13.13;;
22646;SDS011;11490;42.726;23.268;2023-11-21T06:18:17;14.50;;;12.98;;
22646;SDS011;11490;42.726;23.268;2023-11-21T06:20:44;18.10;;;10.98;;
22646;SDS011;11490;42.726;23.268;2023-11-21T06:23:10;12.90;;;9.48;;
22646;SDS011;11490;42.726;23.268;2023-11-21T06:25:36;12.52;;;9.27;;
22646;SDS011;11490;42.726;23.268;2023-11-21T06:28:02;14.15;;;10.50;;
22646;SDS011;11490;42.726;23.268;2023-11-21T06:30:27;17.13;;;10.93;;
22646;SDS011;11490;42.726;23.268;2023-11-21T06:32:54;14.93;;;10.93;;
22646;SDS011;11490;42.726;23.268;2023-11-21T06:35:22;21.88;;;11.10;;
22646;SDS011;11490;42.726;23.268;2023-11-21T06:37:48;17.95;;;13.35;;
22646;SDS011;11490;42.726;23.268;2023-11-21T06:40:14;27.40;;;12.38;;
22646;SDS011;11490;42.726;23.268;2023-11-21T06:42:43;21.13;;;11.00;;
22646;SDS011;11490;42.726;23.268;2023-11-21T06:45:09;14.18;;;10.20;;
22646;SDS011;11490;42.726;23.268;2023-11-21T06:47:35;18.63;;;12.35;;
22646;SDS011;11490;42.726;23.268;2023-11-21T06:50:01;17.42;;;10.27;;
22646;SDS011;11490;42.726;23.268;2023-11-21T06:52:27;20.80;;;10.95;;
22646;SDS011;11490;42.726;23.268;2023-11-21T06:54:52;19.20;;;11.77;;
22646;SDS011;11490;42.726;23.268;2023-11-21T06:57:18;25.80;;;14.35;;
22646;SDS011;11490;42.726;23.268;2023-11-21T06:59:43;19.23;;;13.13;;
22646;SDS011;11490;42.726;23.268;2023-11-21T07:02:09;54.33;;;30.83;;
22646;SDS011;11490;42.726;23.268;2023-11-21T07:04:37;38.50;;;22.25;;
22646;SDS011;11490;42.726;23.268;2023-11-21T07:07:03;38.47;;;23.65;;
22646;SDS011;11490;42.726;23.268;2023-11-21T07:09:29;71.30;;;37.30;;
22646;SDS011;11490;42.726;23.268;2023-11-21T07:11:56;63.53;;;33.65;;
22646;SDS011;11490;42.726;23.268;2023-11-21T07:14:21;69.80;;;37.25;;
22646;SDS011;11490;42.726;23.268;2023-11-21T07:16:47;94.75;;;45.83;;
22646;SDS011;11490;42.726;23.268;2023-11-21T07:19:12;63.95;;;31.15;;
22646;SDS011;11490;42.726;23.268;2023-11-21T07:21:38;33.58;;;20.88;;
22646;SDS011;11490;42.726;23.268;2023-11-21T07:24:04;36.92;;;14.63;;
22646;SDS011;11490;42.726;23.268;2023-11-21T07:26:31;28.10;;;17.08;;
22646;SDS011;11490;42.726;23.268;2023-11-21T07:28:57;24.20;;;15.48;;
22646;SDS011;11490;42.726;23.268;2023-11-21T07:31:22;19.08;;;12.60;;
22646;SDS011;11490;42.726;23.268;2023-11-21T07:33:49;16.90;;;10.48;;
22646;SDS011;11490;42.726;23.268;2023-11-21T07:36:15;18.15;;;12.50;;
22646;SDS011;11490;42.726;23.268;2023-11-21T07:38:43;37.00;;;20.23;;
22646;SDS011;11490;42.726;23.268;2023-11-21T07:41:09;24.25;;;15.48;;
22646;SDS011;11490;42.726;23.268;2023-11-21T07:43:35;17.10;;;13.00;;
22646;SDS011;11490;42.726;23.268;2023-11-21T07:46:02;18.83;;;14.15;;
22646;SDS011;11490;42.726;23.268;2023-11-21T07:48:29;21.75;;;11.95;;
22646;SDS011;11490;42.726;23.268;2023-11-21T07:50:57;19.85;;;13.15;;
22646;SDS011;11490;42.726;23.268;2023-11-21T07:53:26;14.68;;;10.50;;
22646;SDS011;11490;42.726;23.268;2023-11-21T07:55:54;17.17;;;12.38;;
22646;SDS011;11490;42.726;23.268;2023-11-21T07:58:20;21.05;;;12.15;;
22646;SDS011;11490;42.726;23.268;2023-11-21T08:00:46;25.25;;;19.15;;
22646;SDS011;11490;42.726;23.268;2023-11-21T08:03:13;29.05;;;18.10;;
22646;SDS011;11490;42.726;23.268;2023-11-21T08:05:39;49.55;;;24.98;;
22646;SDS011;11490;42.726;23.268;2023-11-21T08:08:04;46.35;;;25.35;;
22646;SDS011;11490;42.726;23.268;2023-11-21T08:10:30;34.08;;;19.60;;
22646;SDS011;11490;42.726;23.268;2023-11-21T08:12:55;20.20;;;12.27;;
22646;SDS011;11490;42.726;23.268;2023-11-21T08:15:21;22.15;;;14.30;;
22646;SDS011;11490;42.726;23.268;2023-11-21T08:17:46;18.15;;;10.70;;
22646;SDS011;11490;42.726;23.268;2023-11-21T08:20:15;18.63;;;12.90;;
22646;SDS011;11490;42.726;23.268;2023-11-21T08:22:41;16.08;;;11.13;;
22646;SDS011;11490;42.726;23.268;2023-11-21T08:25:07;18.13;;;11.25;;
22646;SDS011;11490;42.726;23.268;2023-11-21T08:27:33;28.65;;;14.60;;
22646;SDS011;11490;42.726;23.268;2023-11-21T08:29:59;22.50;;;15.50;;
22646;SDS011;11490;42.726;23.268;2023-11-21T08:32:25;25.80;;;15.23;;
22646;SDS011;11490;42.726;23.268;2023-11-21T08:34:51;25.15;;;12.50;;
22646;SDS011;11490;42.726;23.268;2023-11-21T08:37:16;24.08;;;13.45;;
22646;SDS011;11490;42.726;23.268;2023-11-21T08:49:01;20.92;;;13.32;;
22646;SDS011;11490;42.726;23.268;2023-11-21T08:51:59;15.57;;;10.75;;
22646;SDS011;11490;42.726;23.268;2023-11-21T08:55:24;21.08;;;12.20;;
22646;SDS011;11490;42.726;23.268;2023-11-21T09:05:33;18.23;;;10.55;;
22646;SDS011;11490;42.726;23.268;2023-11-21T09:08:05;20.20;;;11.20;;
22646;SDS011;11490;42.726;23.268;2023-11-21T09:10:50;19.23;;;10.82;;
22646;SDS011;11490;42.726;23.268;2023-11-21T09:13:50;16.65;;;11.63;;
22646;SDS011;11490;42.726;23.268;2023-11-21T09:16:55;16.90;;;12.55;;
22646;SDS011;11490;42.726;23.268;2023-11-21T09:19:40;21.17;;;10.93;;
22646;SDS011;11490;42.726;23.268;2023-11-21T09:22:19;20.38;;;11.27;;
22646;SDS011;11490;42.726;23.268;2023-11-21T09:25:27;19.35;;;11.25;;
22646;SDS011;11490;42.726;23.268;2023-11-21T09:28:39;41.80;;;16.95;;
22646;SDS011;11490;42.726;23.268;2023-11-21T09:31:05;34.72;;;19.40;;
22646;SDS011;11490;42.726;23.268;2023-11-21T09:33:33;32.20;;;17.15;;
22646;SDS011;11490;42.726;23.268;2023-11-21T09:35:59;25.58;;;14.45;;
22646;SDS011;11490;42.726;23.268;2023-11-21T09:38:24;22.15;;;13.82;;
22646;SDS011;11490;42.726;23.268;2023-11-21T09:40:50;25.67;;;14.35;;
22646;SDS011;11490;42.726;23.268;2023-11-21T09:43:19;24.13;;;12.13;;
22646;SDS011;11490;42.726;23.268;2023-11-21T09:45:46;22.77;;;13.65;;
22646;SDS011;11490;42.726;23.268;2023-11-21T09:48:13;22.15;;;13.73;;
22646;SDS011;11490;42.726;23.268;2023-11-21T09:50:46;25.58;;;14.95;;
22646;SDS011;11490;42.726;23.268;2023-11-21T09:55:43;27.83;;;14.07;;
22646;SDS011;11490;42.726;23.268;2023-11-21T09:58:09;22.10;;;13.82;;
22646;SDS011;11490;42.726;23.268;2023-11-21T10:00:39;21.60;;;13.00;;
22646;SDS011;11490;42.726;23.268;2023-11-21T10:03:06;28.52;;;14.48;;
22646;SDS011;11490;42.726;23.268;2023-11-21T10:05:32;34.67;;;15.82;;
22646;SDS011;11490;42.726;23.268;2023-11-21T10:07:59;26.65;;;16.98;;
22646;SDS011;11490;42.726;23.268;2023-11-21T10:10:25;37.08;;;18.13;;
22646;SDS011;11490;42.726;23.268;2023-11-21T10:12:54;28.13;;;18.33;;
22646;SDS011;11490;42.726;23.268;2023-11-21T10:15:21;33.05;;;20.58;;
22646;SDS011;11490;42.726;23.268;2023-11-21T10:17:50;24.98;;;13.40;;
22646;SDS011;11490;42.726;23.268;2023-11-21T10:20:18;23.98;;;13.70;;
22646;SDS011;11490;42.726;23.268;2023-11-21T10:22:44;22.05;;;13.75;;
22646;SDS011;11490;42.726;23.268;2023-11-21T10:25:11;23.52;;;13.98;;
22646;SDS011;11490;42.726;23.268;2023-11-21T10:27:39;31.80;;;18.95;;
22646;SDS011;11490;42.726;23.268;2023-11-21T10:30:09;30.30;;;18.02;;
22646;SDS011;11490;42.726;23.268;2023-11-21T10:32:40;27.33;;;16.42;;
22646;SDS011;11490;42.726;23.268;2023-11-21T10:35:08;28.23;;;15.60;;
22646;SDS011;11490;42.726;23.268;2023-11-21T10:37:38;32.50;;;19.35;;
22646;SDS011;11490;42.726;23.268;2023-11-21T10:40:06;28.27;;;17.63;;
22646;SDS011;11490;42.726;23.268;2023-11-21T10:42:33;39.47;;;18.58;;
22646;SDS011;11490;42.726;23.268;2023-11-21T10:44:58;35.35;;;16.15;;
22646;SDS011;11490;42.726;23.268;2023-11-21T10:47:25;29.23;;;16.30;;
22646;SDS011;11490;42.726;23.268;2023-11-21T10:49:51;25.58;;;16.33;;
22646;SDS011;11490;42.726;23.268;2023-11-21T10:52:21;42.28;;;21.48;;
22646;SDS011;11490;42.726;23.268;2023-11-21T10:54:47;30.05;;;18.17;;
22646;SDS011;11490;42.726;23.268;2023-11-21T10:57:14;19.13;;;11.75;;
22646;SDS011;11490;42.726;23.268;2023-11-21T10:59:43;17.08;;;10.57;;
22646;SDS011;11490;42.726;23.268;2023-11-21T11:02:23;30.35;;;14.30;;
22646;SDS011;11490;42.726;23.268;2023-11-21T11:04:53;19.67;;;12.15;;
22646;SDS011;11490;42.726;23.268;2023-11-21T11:07:25;22.13;;;13.77;;
22646;SDS011;11490;42.726;23.268;2023-11-21T11:09:53;25.95;;;13.02;;
22646;SDS011;11490;42.726;23.268;2023-11-21T11:12:20;23.98;;;15.90;;
22646;SDS011;11490;42.726;23.268;2023-11-21T11:14:45;32.78;;;18.17;;
22646;SDS011;11490;42.726;23.268;2023-11-21T11:17:12;26.90;;;14.85;;
22646;SDS011;11490;42.726;23.268;2023-11-21T11:19:38;26.00;;;13.85;;
22646;SDS011;11490;42.726;23.268;2023-11-21T11:30:29;23.38;;;12.30;;
22646;SDS011;11490;42.726;23.268;2023-11-21T11:38:33;22.15;;;14.80;;
22646;SDS011;11490;42.726;23.268;2023-11-21T11:41:03;24.67;;;14.85;;
22646;SDS011;11490;42.726;23.268;2023-11-21T11:43:30;25.35;;;14.43;;
22646;SDS011;11490;42.726;23.268;2023-11-21T11:46:08;20.75;;;13.40;;
22646;SDS011;11490;42.726;23.268;2023-11-21T11:48:37;26.40;;;12.35;;
22646;SDS011;11490;42.726;23.268;2023-11-21T11:51:05;24.45;;;11.80;;
22646;SDS011;11490;42.726;23.268;2023-11-21T11:53:40;19.95;;;12.52;;
22646;SDS011;11490;42.726;23.268;2023-11-21T11:58:57;20.52;;;12.38;;
22646;SDS011;11490;42.726;23.268;2023-11-21T12:01:27;18.23;;;12.40;;
22646;SDS011;11490;42.726;23.268;2023-11-21T12:06:39;16.70;;;10.82;;
22646;SDS011;11490;42.726;23.268;2023-11-21T12:09:08;18.65;;;11.00;;
22646;SDS011;11490;42.726;23.268;2023-11-21T12:11:43;21.00;;;12.70;;
22646;SDS011;11490;42.726;23.268;2023-11-21T12:14:09;13.07;;;10.15;;
22646;SDS011;11490;42.726;23.268;2023-11-21T12:16:37;24.27;;;12.70;;
22646;SDS011;11490;42.726;23.268;2023-11-21T12:19:03;24.65;;;12.32;;
22646;SDS011;11490;42.726;23.268;2023-11-21T12:21:30;38.47;;;17.50;;
22646;SDS011;11490;42.726;23.268;2023-11-21T12:24:00;31.80;;;14.48;;
22646;SDS011;11490;42.726;23.268;2023-11-21T12:26:25;31.90;;;17.15;;
22646;SDS011;11490;42.726;23.268;2023-11-21T12:28:52;28.90;;;15.65;;
22646;SDS011;11490;42.726;23.268;2023-11-21T12:31:20;28.77;;;15.27;;
22646;SDS011;11490;42.726;23.268;2023-11-21T12:33:46;20.17;;;11.52;;
22646;SDS011;11490;42.726;23.268;2023-11-21T12:36:12;15.90;;;10.35;;
22646;SDS011;11490;42.726;23.268;2023-11-21T12:38:38;15.45;;;10.38;;
22646;SDS011;11490;42.726;23.268;2023-11-21T12:41:03;18.55;;;11.65;;
22646;SDS011;11490;42.726;23.268;2023-11-21T12:43:30;17.17;;;11.50;;
22646;SDS011;11490;42.726;23.268;2023-11-21T12:46:05;22.83;;;14.10;;
22646;SDS011;11490;42.726;23.268;2023-11-21T12:48:36;25.33;;;14.73;;
22646;SDS011;11490;42.726;23.268;2023-11-21T12:51:04;18.23;;;11.52;;
22646;SDS011;11490;42.726;23.268;2023-11-21T12:53:31;17.27;;;11.13;;
22646;SDS011;11490;42.726;23.268;2023-11-21T12:56:02;18.33;;;11.23;;
22646;SDS011;11490;42.726;23.268;2023-11-21T12:58:31;18.90;;;10.45;;
22646;SDS011;11490;42.726;23.268;2023-11-21T13:01:01;22.83;;;12.43;;
22646;SDS011;11490;42.726;23.268;2023-11-21T13:03:29;21.70;;;10.32;;
22646;SDS011;11490;42.726;23.268;2023-11-21T13:05:55;18.15;;;11.27;;
22646;SDS011;11490;42.726;23.268;2023-11-21T13:08:22;13.68;;;9.23;;
22646;SDS011;11490;42.726;23.268;2023-11-21T13:10:50;20.80;;;10.00;;
22646;SDS011;11490;42.726;23.268;2023-11-21T13:13:19;13.75;;;8.27;;
22646;SDS011;11490;42.726;23.268;2023-11-21T13:15:48;11.57;;;8.20;;
22646;SDS011;11490;42.726;23.268;2023-11-21T13:18:14;14.27;;;8.15;;
22646;SDS011;11490;42.726;23.268;2023-11-21T13:20:40;14.57;;;9.13;;
22646;SDS011;11490;42.726;23.268;2023-11-21T13:23:08;16.25;;;8.77;;
22646;SDS011;11490;42.726;23.268;2023-11-21T13:25:36;13.05;;;7.93;;
22646;SDS011;11490;42.726;23.268;2023-11-21T13:28:06;16.33;;;9.73;;
22646;SDS011;11490;42.726;23.268;2023-11-21T13:30:32;23.33;;;10.65;;
22646;SDS011;11490;42.726;23.268;2023-11-21T13:33:01;16.83;;;9.65;;
22646;SDS011;11490;42.726;23.268;2023-11-21T13:35:31;15.10;;;10.40;;
22646;SDS011;11490;42.726;23.268;2023-11-21T13:38:09;17.70;;;10.32;;
22646;SDS011;11490;42.726;23.268;2023-11-21T13:40:51;19.05;;;11.10;;
22646;SDS011;11490;42.726;23.268;2023-11-21T13:43:20;17.67;;;9.27;;
22646;SDS011;11490;42.726;23.268;2023-11-21T13:45:54;13.55;;;8.77;;
22646;SDS011;11490;42.726;23.268;2023-11-21T13:48:29;15.40;;;9.93;;
22646;SDS011;11490;42.726;23.268;2023-11-21T13:51:02;17.83;;;10.60;;
22646;SDS011;11490;42.726;23.268;2023-11-21T13:53:38;27.55;;;16.10;;
22646;SDS011;11490;42.726;23.268;2023-11-21T13:56:11;33.80;;;19.52;;
22646;SDS011;11490;42.726;23.268;2023-11-21T13:58:37;29.63;;;19.45;;
22646;SDS011;11490;42.726;23.268;2023-11-21T14:01:16;33.58;;;17.17;;
22646;SDS011;11490;42.726;23.268;2023-11-21T14:03:57;57.63;;;23.48;;
22646;SDS011;11490;42.726;23.268;2023-11-21T14:06:27;40.08;;;17.83;;
22646;SDS011;11490;42.726;23.268;2023-11-21T14:08:59;277.77;;;71.22;;
22646;SDS011;11490;42.726;23.268;2023-11-21T14:11:30;63.30;;;22.90;;
22646;SDS011;11490;42.726;23.268;2023-11-21T14:13:56;60.70;;;21.65;;
22646;SDS011;11490;42.726;23.268;2023-11-21T14:16:24;28.92;;;16.55;;
22646;SDS011;11490;42.726;23.268;2023-11-21T14:18:49;32.58;;;14.98;;
22646;SDS011;11490;42.726;23.268;2023-11-21T14:21:23;26.30;;;13.70;;
22646;SDS011;11490;42.726;23.268;2023-11-21T14:23:49;29.48;;;14.45;;
22646;SDS011;11490;42.726;23.268;2023-11-21T14:26:14;31.60;;;16.45;;
22646;SDS011;11490;42.726;23.268;2023-11-21T14:28:41;34.90;;;16.15;;
22646;SDS011;11490;42.726;23.268;2023-11-21T14:31:07;27.35;;;14.40;;
22646;SDS011;11490;42.726;23.268;2023-11-21T14:33:38;29.83;;;17.33;;
22646;SDS011;11490;42.726;23.268;2023-11-21T14:36:04;49.28;;;23.42;;
22646;SDS011;11490;42.726;23.268;2023-11-21T14:38:29;37.47;;;17.40;;
22646;SDS011;11490;42.726;23.268;2023-11-21T14:40:55;32.72;;;16.88;;
22646;SDS011;11490;42.726;23.268;2023-11-21T14:43:22;27.33;;;16.85;;
22646;SDS011;11490;42.726;23.268;2023-11-21T14:45:47;24.38;;;14.85;;
22646;SDS011;11490;42.726;23.268;2023-11-21T14:48:16;30.25;;;15.15;;
22646;SDS011;11490;42.726;23.268;2023-11-21T14:50:51;23.80;;;13.57;;
22646;SDS011;11490;42.726;23.268;2023-11-21T14:53:36;24.20;;;15.00;;
22646;SDS011;11490;42.726;23.268;2023-11-21T14:56:12;31.98;;;15.85;;